sensor_id;sensor_type;location;lat;lon;timestamp;temperature;humidity
18083;DHT22;9168;51.194;6.840;2023-02-19T00:02:14;10.30;99.90
18083;DHT22;9168;51.194;6.840;2023-02-19T00:04:41;10.40;99.90
18083;DHT22;9168;51.194;6.840;2023-02-19T00:07:08;10.40;99.90
18083;DHT22;9168;51.194;6.840;2023-02-19T00:09:35;10.40;99.90
18083;DHT22;9168;51.194;6.840;2023-02-19T00:12:02;10.30;99.90
18083;DHT22;9168;51.194;6.840;2023-02-19T00:14:30;10.30;99.90
18083;DHT22;9168;51.194;6.840;2023-02-19T00:16:57;10.30;99.90
18083;DHT22;9168;51.194;6.840;2023-02-19T00:19:24;10.30;99.90
18083;DHT22;9168;51.194;6.840;2023-02-19T00:21:51;10.30;99.90
18083;DHT22;9168;51.194;6.840;2023-02-19T00:24:19;10.30;99.90
18083;DHT22;9168;51.194;6.840;2023-02-19T00:26:46;10.30;99.90
18083;DHT22;9168;51.194;6.840;2023-02-19T00:29:15;10.30;99.90
18083;DHT22;9168;51.194;6.840;2023-02-19T00:31:44;10.30;99.90
18083;DHT22;9168;51.194;6.840;2023-02-19T00:34:11;10.30;99.90
18083;DHT22;9168;51.194;6.840;2023-02-19T00:36:39;10.30;99.90
18083;DHT22;9168;51.194;6.840;2023-02-19T00:39:07;10.30;99.90
18083;DHT22;9168;51.194;6.840;2023-02-19T00:41:36;10.30;99.90
18083;DHT22;9168;51.194;6.840;2023-02-19T00:44:05;10.30;99.90
18083;DHT22;9168;51.194;6.840;2023-02-19T00:46:34;10.30;99.90
18083;DHT22;9168;51.194;6.840;2023-02-19T00:49:03;10.30;99.90
18083;DHT22;9168;51.194;6.840;2023-02-19T00:51:31;10.30;99.90
18083;DHT22;9168;51.194;6.840;2023-02-19T00:53:59;10.30;99.90
18083;DHT22;9168;51.194;6.840;2023-02-19T00:56:26;10.30;99.90
18083;DHT22;9168;51.194;6.840;2023-02-19T00:58:52;10.20;99.90
18083;DHT22;9168;51.194;6.840;2023-02-19T01:01:19;10.30;99.90
18083;DHT22;9168;51.194;6.840;2023-02-19T01:03:47;10.30;99.90
18083;DHT22;9168;51.194;6.840;2023-02-19T01:06:17;10.20;99.90
18083;DHT22;9168;51.194;6.840;2023-02-19T01:08:45;10.30;99.90
18083;DHT22;9168;51.194;6.840;2023-02-19T01:11:12;10.20;99.90
18083;DHT22;9168;51.194;6.840;2023-02-19T01:13:39;10.20;99.90
18083;DHT22;9168;51.194;6.840;2023-02-19T01:16:09;10.20;99.90
18083;DHT22;9168;51.194;6.840;2023-02-19T01:18:36;10.20;99.90
18083;DHT22;9168;51.194;6.840;2023-02-19T01:21:05;10.20;99.90
18083;DHT22;9168;51.194;6.840;2023-02-19T01:23:34;10.20;99.90
18083;DHT22;9168;51.194;6.840;2023-02-19T01:26:03;10.20;99.90
18083;DHT22;9168;51.194;6.840;2023-02-19T01:28:30;10.20;99.90
18083;DHT22;9168;51.194;6.840;2023-02-19T01:31:00;10.20;99.90
18083;DHT22;9168;51.194;6.840;2023-02-19T01:33:27;10.20;99.90
18083;DHT22;9168;51.194;6.840;2023-02-19T01:35:54;10.20;99.90
18083;DHT22;9168;51.194;6.840;2023-02-19T01:38:21;10.20;99.90
18083;DHT22;9168;51.194;6.840;2023-02-19T01:40:54;10.30;99.90
18083;DHT22;9168;51.194;6.840;2023-02-19T01:43:22;10.30;99.90
18083;DHT22;9168;51.194;6.840;2023-02-19T01:45:49;10.30;99.90
18083;DHT22;9168;51.194;6.840;2023-02-19T01:48:19;10.30;99.90
18083;DHT22;9168;51.194;6.840;2023-02-19T01:50:51;10.30;99.90
18083;DHT22;9168;51.194;6.840;2023-02-19T01:53:22;10.30;99.90
18083;DHT22;9168;51.194;6.840;2023-02-19T01:55:53;10.30;99.90
18083;DHT22;9168;51.194;6.840;2023-02-19T01:58:23;10.30;99.90
18083;DHT22;9168;51.194;6.840;2023-02-19T02:00:51;10.40;99.90
18083;DHT22;9168;51.194;6.840;2023-02-19T02:03:18;10.40;99.90
18083;DHT22;9168;51.194;6.840;2023-02-19T02:05:52;10.40;99.90
18083;DHT22;9168;51.194;6.840;2023-02-19T02:08:21;10.40;99.90
18083;DHT22;9168;51.194;6.840;2023-02-19T02:11:07;10.40;99.90
18083;DHT22;9168;51.194;6.840;2023-02-19T02:13:35;10.40;99.90
18083;DHT22;9168;51.194;6.840;2023-02-19T02:16:12;10.40;99.90
18083;DHT22;9168;51.194;6.840;2023-02-19T02:18:58;10.30;99.90
18083;DHT22;9168;51.194;6.840;2023-02-19T02:21:45;10.30;99.90
18083;DHT22;9168;51.194;6.840;2023-02-19T02:27:21;10.30;99.90
18083;DHT22;9168;51.194;6.840;2023-02-19T02:30:11;10.30;99.90
18083;DHT22;9168;51.194;6.840;2023-02-19T02:32:47;10.20;99.90
18083;DHT22;9168;51.194;6.840;2023-02-19T02:35:19;10.20;99.90
18083;DHT22;9168;51.194;6.840;2023-02-19T02:37:48;10.20;99.90
18083;DHT22;9168;51.194;6.840;2023-02-19T02:40:17;10.20;99.90
18083;DHT22;9168;51.194;6.840;2023-02-19T02:42:44;10.20;99.90
18083;DHT22;9168;51.194;6.840;2023-02-19T02:45:28;10.10;99.90
18083;DHT22;9168;51.194;6.840;2023-02-19T02:48:12;10.10;99.90
18083;DHT22;9168;51.194;6.840;2023-02-19T02:50:45;10.10;99.90
18083;DHT22;9168;51.194;6.840;2023-02-19T02:53:16;10.10;99.90
18083;DHT22;9168;51.194;6.840;2023-02-19T02:56:02;10.10;99.90
18083;DHT22;9168;51.194;6.840;2023-02-19T02:58:30;10.10;99.90
18083;DHT22;9168;51.194;6.840;2023-02-19T03:01:03;10.10;99.90
18083;DHT22;9168;51.194;6.840;2023-02-19T03:03:52;10.10;99.90
18083;DHT22;9168;51.194;6.840;2023-02-19T03:06:21;10.10;99.90
18083;DHT22;9168;51.194;6.840;2023-02-19T03:08:52;10.10;99.90
18083;DHT22;9168;51.194;6.840;2023-02-19T03:11:20;10.10;99.90
18083;DHT22;9168;51.194;6.840;2023-02-19T03:14:08;10.10;99.90
18083;DHT22;9168;51.194;6.840;2023-02-19T03:16:57;10.10;99.90
18083;DHT22;9168;51.194;6.840;2023-02-19T03:19:50;10.10;99.90
18083;DHT22;9168;51.194;6.840;2023-02-19T03:22:21;10.10;99.90
18083;DHT22;9168;51.194;6.840;2023-02-19T03:24:51;10.10;99.90
18083;DHT22;9168;51.194;6.840;2023-02-19T03:27:38;10.10;99.90
18083;DHT22;9168;51.194;6.840;2023-02-19T03:30:09;10.10;99.90
18083;DHT22;9168;51.194;6.840;2023-02-19T03:32:41;10.10;99.90
18083;DHT22;9168;51.194;6.840;2023-02-19T03:35:12;10.00;99.90
18083;DHT22;9168;51.194;6.840;2023-02-19T03:37:43;10.00;99.90
18083;DHT22;9168;51.194;6.840;2023-02-19T03:40:11;10.10;99.90
18083;DHT22;9168;51.194;6.840;2023-02-19T03:42:42;10.10;99.90
18083;DHT22;9168;51.194;6.840;2023-02-19T03:45:32;10.00;99.90
18083;DHT22;9168;51.194;6.840;2023-02-19T03:48:17;10.00;99.90
18083;DHT22;9168;51.194;6.840;2023-02-19T03:50:50;10.10;99.90
18083;DHT22;9168;51.194;6.840;2023-02-19T03:53:26;10.10;99.90
18083;DHT22;9168;51.194;6.840;2023-02-19T03:56:04;10.00;99.90
18083;DHT22;9168;51.194;6.840;2023-02-19T03:58:37;10.00;99.90
18083;DHT22;9168;51.194;6.840;2023-02-19T04:01:08;10.00;99.90
18083;DHT22;9168;51.194;6.840;2023-02-19T04:03:40;10.00;99.90
18083;DHT22;9168;51.194;6.840;2023-02-19T04:06:12;9.90;99.90
18083;DHT22;9168;51.194;6.840;2023-02-19T04:08:43;9.90;99.90
18083;DHT22;9168;51.194;6.840;2023-02-19T04:11:12;9.90;99.90
18083;DHT22;9168;51.194;6.840;2023-02-19T04:13:43;10.00;99.90
18083;DHT22;9168;51.194;6.840;2023-02-19T04:16:14;9.90;99.90
18083;DHT22;9168;51.194;6.840;2023-02-19T04:18:47;10.00;99.90
18083;DHT22;9168;51.194;6.840;2023-02-19T04:21:15;10.00;99.90
18083;DHT22;9168;51.194;6.840;2023-02-19T04:23:44;10.00;99.90
18083;DHT22;9168;51.194;6.840;2023-02-19T04:26:12;10.00;99.90
18083;DHT22;9168;51.194;6.840;2023-02-19T04:28:40;10.00;99.90
18083;DHT22;9168;51.194;6.840;2023-02-19T04:31:08;10.00;99.90
18083;DHT22;9168;51.194;6.840;2023-02-19T04:33:36;10.00;99.90
18083;DHT22;9168;51.194;6.840;2023-02-19T04:36:05;10.00;99.90
18083;DHT22;9168;51.194;6.840;2023-02-19T04:38:32;9.90;99.90
18083;DHT22;9168;51.194;6.840;2023-02-19T04:40:59;10.00;99.90
18083;DHT22;9168;51.194;6.840;2023-02-19T04:43:26;10.00;99.90
18083;DHT22;9168;51.194;6.840;2023-02-19T04:45:53;10.00;99.90
18083;DHT22;9168;51.194;6.840;2023-02-19T04:48:20;10.00;99.90
18083;DHT22;9168;51.194;6.840;2023-02-19T04:50:47;9.90;99.90
18083;DHT22;9168;51.194;6.840;2023-02-19T04:53:15;10.00;99.90
18083;DHT22;9168;51.194;6.840;2023-02-19T04:55:42;10.00;99.90
18083;DHT22;9168;51.194;6.840;2023-02-19T04:58:09;10.00;99.90
18083;DHT22;9168;51.194;6.840;2023-02-19T05:00:35;10.00;99.90
18083;DHT22;9168;51.194;6.840;2023-02-19T05:03:02;9.90;99.90
18083;DHT22;9168;51.194;6.840;2023-02-19T05:05:29;9.90;99.90
18083;DHT22;9168;51.194;6.840;2023-02-19T05:07:56;9.90;99.90
18083;DHT22;9168;51.194;6.840;2023-02-19T05:10:24;9.90;99.90
18083;DHT22;9168;51.194;6.840;2023-02-19T05:12:53;9.90;99.90
18083;DHT22;9168;51.194;6.840;2023-02-19T05:15:20;9.90;99.90
18083;DHT22;9168;51.194;6.840;2023-02-19T05:17:46;9.90;99.90
18083;DHT22;9168;51.194;6.840;2023-02-19T05:20:13;10.00;99.90
18083;DHT22;9168;51.194;6.840;2023-02-19T05:22:40;9.90;99.90
18083;DHT22;9168;51.194;6.840;2023-02-19T05:25:07;10.00;99.90
18083;DHT22;9168;51.194;6.840;2023-02-19T05:27:35;10.00;99.90
18083;DHT22;9168;51.194;6.840;2023-02-19T05:30:02;10.00;99.90
18083;DHT22;9168;51.194;6.840;2023-02-19T05:32:29;9.90;99.90
18083;DHT22;9168;51.194;6.840;2023-02-19T05:34:56;9.90;99.90
18083;DHT22;9168;51.194;6.840;2023-02-19T05:37:23;9.80;99.90
18083;DHT22;9168;51.194;6.840;2023-02-19T05:39:50;9.80;99.90
18083;DHT22;9168;51.194;6.840;2023-02-19T05:42:17;9.80;99.90
18083;DHT22;9168;51.194;6.840;2023-02-19T05:44:45;9.80;99.90
18083;DHT22;9168;51.194;6.840;2023-02-19T05:47:12;9.90;99.90
18083;DHT22;9168;51.194;6.840;2023-02-19T05:49:39;9.80;99.90
18083;DHT22;9168;51.194;6.840;2023-02-19T05:52:06;9.80;99.90
18083;DHT22;9168;51.194;6.840;2023-02-19T05:54:32;9.90;99.90
18083;DHT22;9168;51.194;6.840;2023-02-19T05:56:59;9.90;99.90
18083;DHT22;9168;51.194;6.840;2023-02-19T05:59:26;9.80;99.90
18083;DHT22;9168;51.194;6.840;2023-02-19T06:01:55;9.90;99.90
18083;DHT22;9168;51.194;6.840;2023-02-19T06:04:22;9.80;99.90
18083;DHT22;9168;51.194;6.840;2023-02-19T06:06:49;9.80;99.90
18083;DHT22;9168;51.194;6.840;2023-02-19T06:09:16;9.80;99.90
18083;DHT22;9168;51.194;6.840;2023-02-19T06:11:44;9.80;99.90
18083;DHT22;9168;51.194;6.840;2023-02-19T06:14:11;9.70;99.90
18083;DHT22;9168;51.194;6.840;2023-02-19T06:16:39;9.70;99.90
18083;DHT22;9168;51.194;6.840;2023-02-19T06:19:07;9.70;99.90
18083;DHT22;9168;51.194;6.840;2023-02-19T06:21:34;9.80;99.90
18083;DHT22;9168;51.194;6.840;2023-02-19T06:24:04;9.80;99.90
18083;DHT22;9168;51.194;6.840;2023-02-19T06:26:31;9.80;99.90
18083;DHT22;9168;51.194;6.840;2023-02-19T06:28:58;9.80;99.90
18083;DHT22;9168;51.194;6.840;2023-02-19T06:31:25;9.80;99.90
18083;DHT22;9168;51.194;6.840;2023-02-19T06:33:52;9.70;99.90
18083;DHT22;9168;51.194;6.840;2023-02-19T06:36:21;9.70;99.90
18083;DHT22;9168;51.194;6.840;2023-02-19T06:38:48;9.70;99.90
18083;DHT22;9168;51.194;6.840;2023-02-19T06:41:16;9.70;99.90
18083;DHT22;9168;51.194;6.840;2023-02-19T06:43:43;9.70;99.90
18083;DHT22;9168;51.194;6.840;2023-02-19T06:46:11;9.70;99.90
18083;DHT22;9168;51.194;6.840;2023-02-19T06:48:40;9.70;99.90
18083;DHT22;9168;51.194;6.840;2023-02-19T06:51:08;9.70;99.90
18083;DHT22;9168;51.194;6.840;2023-02-19T06:53:36;9.70;99.90
18083;DHT22;9168;51.194;6.840;2023-02-19T06:56:05;9.70;99.90
18083;DHT22;9168;51.194;6.840;2023-02-19T06:58:33;9.60;99.90
18083;DHT22;9168;51.194;6.840;2023-02-19T07:01:00;9.60;99.90
18083;DHT22;9168;51.194;6.840;2023-02-19T07:03:27;9.60;99.90
18083;DHT22;9168;51.194;6.840;2023-02-19T07:05:54;9.60;99.90
18083;DHT22;9168;51.194;6.840;2023-02-19T07:08:21;9.60;99.90
18083;DHT22;9168;51.194;6.840;2023-02-19T07:10:54;9.60;99.90
18083;DHT22;9168;51.194;6.840;2023-02-19T07:13:22;9.60;99.90
18083;DHT22;9168;51.194;6.840;2023-02-19T07:15:49;9.60;99.90
18083;DHT22;9168;51.194;6.840;2023-02-19T07:18:16;9.60;99.90
18083;DHT22;9168;51.194;6.840;2023-02-19T07:20:43;9.60;99.90
18083;DHT22;9168;51.194;6.840;2023-02-19T07:23:10;9.60;99.90
18083;DHT22;9168;51.194;6.840;2023-02-19T07:25:37;9.70;99.90
18083;DHT22;9168;51.194;6.840;2023-02-19T07:28:06;9.70;99.90
18083;DHT22;9168;51.194;6.840;2023-02-19T07:30:33;9.70;99.90
18083;DHT22;9168;51.194;6.840;2023-02-19T07:33:00;9.70;99.90
18083;DHT22;9168;51.194;6.840;2023-02-19T07:35:27;9.60;99.90
18083;DHT22;9168;51.194;6.840;2023-02-19T07:37:54;9.70;99.90
18083;DHT22;9168;51.194;6.840;2023-02-19T07:40:21;9.70;99.90
18083;DHT22;9168;51.194;6.840;2023-02-19T07:42:47;9.70;99.90
18083;DHT22;9168;51.194;6.840;2023-02-19T07:45:16;9.70;99.90
18083;DHT22;9168;51.194;6.840;2023-02-19T07:47:43;9.70;99.90
18083;DHT22;9168;51.194;6.840;2023-02-19T07:50:10;9.80;99.90
18083;DHT22;9168;51.194;6.840;2023-02-19T07:52:36;9.80;99.90
18083;DHT22;9168;51.194;6.840;2023-02-19T07:55:04;9.80;99.90
18083;DHT22;9168;51.194;6.840;2023-02-19T07:57:30;9.80;99.90
18083;DHT22;9168;51.194;6.840;2023-02-19T07:59:57;9.80;99.90
18083;DHT22;9168;51.194;6.840;2023-02-19T08:02:26;9.80;99.90
18083;DHT22;9168;51.194;6.840;2023-02-19T08:05:10;9.70;99.90
18083;DHT22;9168;51.194;6.840;2023-02-19T08:07:38;9.70;99.90
18083;DHT22;9168;51.194;6.840;2023-02-19T08:10:05;9.70;99.90
18083;DHT22;9168;51.194;6.840;2023-02-19T08:12:56;9.70;99.90
18083;DHT22;9168;51.194;6.840;2023-02-19T08:15:41;9.70;99.90
18083;DHT22;9168;51.194;6.840;2023-02-19T08:18:09;9.80;99.90
18083;DHT22;9168;51.194;6.840;2023-02-19T08:20:37;9.80;99.90
18083;DHT22;9168;51.194;6.840;2023-02-19T08:23:04;9.80;99.90
18083;DHT22;9168;51.194;6.840;2023-02-19T08:25:32;9.80;99.90
18083;DHT22;9168;51.194;6.840;2023-02-19T08:27:59;9.90;99.90
18083;DHT22;9168;51.194;6.840;2023-02-19T08:30:27;9.90;99.90
18083;DHT22;9168;51.194;6.840;2023-02-19T08:32:54;9.90;99.90
18083;DHT22;9168;51.194;6.840;2023-02-19T08:35:22;9.90;99.90
18083;DHT22;9168;51.194;6.840;2023-02-19T08:37:49;9.90;99.90
18083;DHT22;9168;51.194;6.840;2023-02-19T08:40:16;9.90;99.90
18083;DHT22;9168;51.194;6.840;2023-02-19T08:42:43;9.90;99.90
18083;DHT22;9168;51.194;6.840;2023-02-19T08:45:10;9.90;99.90
18083;DHT22;9168;51.194;6.840;2023-02-19T08:47:39;9.90;99.90
18083;DHT22;9168;51.194;6.840;2023-02-19T08:50:06;10.00;99.90
18083;DHT22;9168;51.194;6.840;2023-02-19T08:52:35;10.00;99.90
18083;DHT22;9168;51.194;6.840;2023-02-19T08:55:02;10.10;99.90
18083;DHT22;9168;51.194;6.840;2023-02-19T08:57:29;10.10;99.90
18083;DHT22;9168;51.194;6.840;2023-02-19T08:59:56;10.10;99.90
18083;DHT22;9168;51.194;6.840;2023-02-19T09:02:24;10.10;99.90
18083;DHT22;9168;51.194;6.840;2023-02-19T09:04:51;10.20;99.90
18083;DHT22;9168;51.194;6.840;2023-02-19T09:07:17;10.20;99.90
18083;DHT22;9168;51.194;6.840;2023-02-19T09:09:46;10.20;99.90
18083;DHT22;9168;51.194;6.840;2023-02-19T09:12:13;10.20;99.90
18083;DHT22;9168;51.194;6.840;2023-02-19T09:14:40;10.20;99.90
18083;DHT22;9168;51.194;6.840;2023-02-19T09:17:07;10.20;99.90
18083;DHT22;9168;51.194;6.840;2023-02-19T09:19:35;10.20;99.90
18083;DHT22;9168;51.194;6.840;2023-02-19T09:22:03;10.30;99.90
18083;DHT22;9168;51.194;6.840;2023-02-19T09:24:31;10.20;99.90
18083;DHT22;9168;51.194;6.840;2023-02-19T09:26:59;10.30;99.90
18083;DHT22;9168;51.194;6.840;2023-02-19T09:29:27;10.30;99.90
18083;DHT22;9168;51.194;6.840;2023-02-19T09:31:58;10.30;99.90
18083;DHT22;9168;51.194;6.840;2023-02-19T09:34:25;10.40;99.90
18083;DHT22;9168;51.194;6.840;2023-02-19T09:36:52;10.30;99.90
18083;DHT22;9168;51.194;6.840;2023-02-19T09:39:20;10.30;99.90
18083;DHT22;9168;51.194;6.840;2023-02-19T09:41:48;10.30;99.90
18083;DHT22;9168;51.194;6.840;2023-02-19T09:44:24;10.20;99.90
18083;DHT22;9168;51.194;6.840;2023-02-19T09:46:52;10.20;99.90
18083;DHT22;9168;51.194;6.840;2023-02-19T09:49:25;10.20;99.90
18083;DHT22;9168;51.194;6.840;2023-02-19T09:51:57;10.20;99.90
18083;DHT22;9168;51.194;6.840;2023-02-19T09:54:29;10.20;99.90
18083;DHT22;9168;51.194;6.840;2023-02-19T09:56:59;10.20;99.90
18083;DHT22;9168;51.194;6.840;2023-02-19T09:59:34;10.20;99.90
18083;DHT22;9168;51.194;6.840;2023-02-19T10:02:12;10.10;99.90
18083;DHT22;9168;51.194;6.840;2023-02-19T10:04:42;10.10;99.90
18083;DHT22;9168;51.194;6.840;2023-02-19T10:07:11;10.10;99.90
18083;DHT22;9168;51.194;6.840;2023-02-19T10:09:39;10.00;99.90
18083;DHT22;9168;51.194;6.840;2023-02-19T10:12:14;10.00;99.90
18083;DHT22;9168;51.194;6.840;2023-02-19T10:14:44;10.00;99.90
18083;DHT22;9168;51.194;6.840;2023-02-19T10:17:20;10.10;99.90
18083;DHT22;9168;51.194;6.840;2023-02-19T10:19:48;10.20;99.90
18083;DHT22;9168;51.194;6.840;2023-02-19T10:22:15;10.10;99.90
18083;DHT22;9168;51.194;6.840;2023-02-19T10:24:43;10.20;99.90
18083;DHT22;9168;51.194;6.840;2023-02-19T10:27:12;10.20;99.90
18083;DHT22;9168;51.194;6.840;2023-02-19T10:29:39;10.10;99.90
18083;DHT22;9168;51.194;6.840;2023-02-19T10:32:16;10.20;99.90
18083;DHT22;9168;51.194;6.840;2023-02-19T10:35:09;10.20;99.90
18083;DHT22;9168;51.194;6.840;2023-02-19T10:37:42;10.40;99.90
18083;DHT22;9168;51.194;6.840;2023-02-19T10:40:15;10.40;99.90
18083;DHT22;9168;51.194;6.840;2023-02-19T10:42:45;10.60;99.90
18083;DHT22;9168;51.194;6.840;2023-02-19T10:45:17;10.70;99.90
18083;DHT22;9168;51.194;6.840;2023-02-19T10:47:47;10.80;99.90
18083;DHT22;9168;51.194;6.840;2023-02-19T10:50:26;10.80;99.90
18083;DHT22;9168;51.194;6.840;2023-02-19T10:52:55;10.80;99.90
18083;DHT22;9168;51.194;6.840;2023-02-19T10:55:28;10.70;99.90
18083;DHT22;9168;51.194;6.840;2023-02-19T10:57:56;10.70;99.90
18083;DHT22;9168;51.194;6.840;2023-02-19T11:00:24;10.60;99.90
18083;DHT22;9168;51.194;6.840;2023-02-19T11:03:20;10.60;99.90
18083;DHT22;9168;51.194;6.840;2023-02-19T11:06:02;10.50;99.90
18083;DHT22;9168;51.194;6.840;2023-02-19T11:08:30;10.40;99.90
18083;DHT22;9168;51.194;6.840;2023-02-19T11:10:59;10.50;99.90
18083;DHT22;9168;51.194;6.840;2023-02-19T11:13:29;10.50;99.90
18083;DHT22;9168;51.194;6.840;2023-02-19T11:15:57;10.50;99.90
18083;DHT22;9168;51.194;6.840;2023-02-19T11:18:28;10.50;99.90
18083;DHT22;9168;51.194;6.840;2023-02-19T11:20:57;10.40;99.90
18083;DHT22;9168;51.194;6.840;2023-02-19T11:23:27;10.30;99.90
18083;DHT22;9168;51.194;6.840;2023-02-19T11:25:55;10.20;99.90
18083;DHT22;9168;51.194;6.840;2023-02-19T11:28:30;10.20;99.90
18083;DHT22;9168;51.194;6.840;2023-02-19T11:31:13;10.20;99.90
18083;DHT22;9168;51.194;6.840;2023-02-19T11:33:51;10.20;99.90
18083;DHT22;9168;51.194;6.840;2023-02-19T11:36:28;10.10;99.90
18083;DHT22;9168;51.194;6.840;2023-02-19T11:38:55;10.20;99.90
18083;DHT22;9168;51.194;6.840;2023-02-19T11:44:23;10.10;99.90
18083;DHT22;9168;51.194;6.840;2023-02-19T11:49:47;10.10;99.90
18083;DHT22;9168;51.194;6.840;2023-02-19T11:52:27;10.10;99.90
18083;DHT22;9168;51.194;6.840;2023-02-19T11:55:04;10.00;99.90
18083;DHT22;9168;51.194;6.840;2023-02-19T11:57:39;10.10;99.90
18083;DHT22;9168;51.194;6.840;2023-02-19T12:00:31;10.10;99.90
18083;DHT22;9168;51.194;6.840;2023-02-19T12:03:16;10.10;99.90
18083;DHT22;9168;51.194;6.840;2023-02-19T12:06:03;10.10;99.90
18083;DHT22;9168;51.194;6.840;2023-02-19T12:08:46;10.10;99.90
18083;DHT22;9168;51.194;6.840;2023-02-19T12:11:31;10.10;99.90
18083;DHT22;9168;51.194;6.840;2023-02-19T12:14:22;10.00;99.90
18083;DHT22;9168;51.194;6.840;2023-02-19T12:17:00;10.00;99.90
18083;DHT22;9168;51.194;6.840;2023-02-19T12:19:43;10.00;99.90
18083;DHT22;9168;51.194;6.840;2023-02-19T12:22:26;10.10;99.90
18083;DHT22;9168;51.194;6.840;2023-02-19T12:25:21;10.20;99.90
18083;DHT22;9168;51.194;6.840;2023-02-19T12:28:12;10.20;99.90
18083;DHT22;9168;51.194;6.840;2023-02-19T12:34:03;10.30;99.90
18083;DHT22;9168;51.194;6.840;2023-02-19T12:36:39;10.30;99.90
18083;DHT22;9168;51.194;6.840;2023-02-19T12:39:15;10.30;99.90
18083;DHT22;9168;51.194;6.840;2023-02-19T12:41:49;10.30;99.90
18083;DHT22;9168;51.194;6.840;2023-02-19T12:44:23;10.20;99.90
18083;DHT22;9168;51.194;6.840;2023-02-19T12:46:58;10.20;99.90
18083;DHT22;9168;51.194;6.840;2023-02-19T12:49:30;10.20;99.90
18083;DHT22;9168;51.194;6.840;2023-02-19T12:52:02;10.20;99.90
18083;DHT22;9168;51.194;6.840;2023-02-19T12:54:34;10.20;99.90
18083;DHT22;9168;51.194;6.840;2023-02-19T12:57:07;10.30;99.90
18083;DHT22;9168;51.194;6.840;2023-02-19T12:59:40;10.40;99.90
18083;DHT22;9168;51.194;6.840;2023-02-19T13:02:13;10.50;99.90
18083;DHT22;9168;51.194;6.840;2023-02-19T13:04:45;10.60;99.90
18083;DHT22;9168;51.194;6.840;2023-02-19T13:07:17;10.60;99.90
18083;DHT22;9168;51.194;6.840;2023-02-19T13:09:50;10.70;99.90
18083;DHT22;9168;51.194;6.840;2023-02-19T13:12:22;10.70;99.90
18083;DHT22;9168;51.194;6.840;2023-02-19T13:14:54;10.60;99.90
18083;DHT22;9168;51.194;6.840;2023-02-19T13:17:25;10.60;99.90
18083;DHT22;9168;51.194;6.840;2023-02-19T13:19:57;10.60;99.90
18083;DHT22;9168;51.194;6.840;2023-02-19T13:22:30;10.60;99.90
18083;DHT22;9168;51.194;6.840;2023-02-19T13:25:17;10.50;99.90
18083;DHT22;9168;51.194;6.840;2023-02-19T13:28:12;10.50;99.90
18083;DHT22;9168;51.194;6.840;2023-02-19T13:31:02;10.50;99.90
18083;DHT22;9168;51.194;6.840;2023-02-19T13:33:41;10.50;99.90
18083;DHT22;9168;51.194;6.840;2023-02-19T13:36:14;10.50;99.90
18083;DHT22;9168;51.194;6.840;2023-02-19T13:38:44;10.50;99.90
18083;DHT22;9168;51.194;6.840;2023-02-19T13:41:28;10.50;99.90
18083;DHT22;9168;51.194;6.840;2023-02-19T13:43:58;10.40;99.90
18083;DHT22;9168;51.194;6.840;2023-02-19T13:46:32;10.30;99.90
18083;DHT22;9168;51.194;6.840;2023-02-19T13:52:38;10.30;99.90
18083;DHT22;9168;51.194;6.840;2023-02-19T13:55:44;10.40;99.90
18083;DHT22;9168;51.194;6.840;2023-02-19T14:04:48;10.30;99.90
18083;DHT22;9168;51.194;6.840;2023-02-19T14:07:48;10.20;99.90
18083;DHT22;9168;51.194;6.840;2023-02-19T14:16:55;10.30;99.90
18083;DHT22;9168;51.194;6.840;2023-02-19T14:19:54;10.30;99.90
18083;DHT22;9168;51.194;6.840;2023-02-19T14:22:59;10.40;99.90
18083;DHT22;9168;51.194;6.840;2023-02-19T14:28:32;10.40;99.90
18083;DHT22;9168;51.194;6.840;2023-02-19T14:31:14;10.50;99.90
18083;DHT22;9168;51.194;6.840;2023-02-19T14:33:44;10.50;99.90
18083;DHT22;9168;51.194;6.840;2023-02-19T14:36:19;10.50;99.90
18083;DHT22;9168;51.194;6.840;2023-02-19T14:38:51;10.50;99.90
18083;DHT22;9168;51.194;6.840;2023-02-19T14:41:20;10.50;99.90
18083;DHT22;9168;51.194;6.840;2023-02-19T14:43:51;10.50;99.90
18083;DHT22;9168;51.194;6.840;2023-02-19T14:46:25;10.50;99.90
18083;DHT22;9168;51.194;6.840;2023-02-19T14:48:55;10.40;99.90
18083;DHT22;9168;51.194;6.840;2023-02-19T14:51:29;10.40;99.90
18083;DHT22;9168;51.194;6.840;2023-02-19T14:53:57;10.30;99.90
18083;DHT22;9168;51.194;6.840;2023-02-19T14:56:31;10.20;99.90
18083;DHT22;9168;51.194;6.840;2023-02-19T14:59:07;10.20;99.90
18083;DHT22;9168;51.194;6.840;2023-02-19T15:01:34;10.10;99.90
18083;DHT22;9168;51.194;6.840;2023-02-19T15:04:01;10.10;99.90
18083;DHT22;9168;51.194;6.840;2023-02-19T15:06:30;10.10;99.90
18083;DHT22;9168;51.194;6.840;2023-02-19T15:09:02;10.10;99.90
18083;DHT22;9168;51.194;6.840;2023-02-19T15:11:30;10.00;99.90
18083;DHT22;9168;51.194;6.840;2023-02-19T15:14:00;10.00;99.90
18083;DHT22;9168;51.194;6.840;2023-02-19T15:16:29;10.00;99.90
18083;DHT22;9168;51.194;6.840;2023-02-19T15:18:58;10.00;99.90
18083;DHT22;9168;51.194;6.840;2023-02-19T15:21:28;10.00;99.90
18083;DHT22;9168;51.194;6.840;2023-02-19T15:23:59;10.00;99.90
18083;DHT22;9168;51.194;6.840;2023-02-19T15:26:32;10.00;99.90
18083;DHT22;9168;51.194;6.840;2023-02-19T15:29:01;10.00;99.90
18083;DHT22;9168;51.194;6.840;2023-02-19T15:31:28;10.10;99.90
18083;DHT22;9168;51.194;6.840;2023-02-19T15:33:55;10.00;99.90
18083;DHT22;9168;51.194;6.840;2023-02-19T15:36:26;10.00;99.90
18083;DHT22;9168;51.194;6.840;2023-02-19T15:39:00;10.00;99.90
18083;DHT22;9168;51.194;6.840;2023-02-19T15:41:30;10.00;99.90
18083;DHT22;9168;51.194;6.840;2023-02-19T15:44:18;10.00;99.90
18083;DHT22;9168;51.194;6.840;2023-02-19T15:46:50;9.90;99.90
18083;DHT22;9168;51.194;6.840;2023-02-19T15:49:19;9.90;99.90
18083;DHT22;9168;51.194;6.840;2023-02-19T15:51:50;9.90;99.90
18083;DHT22;9168;51.194;6.840;2023-02-19T15:54:22;9.80;99.90
18083;DHT22;9168;51.194;6.840;2023-02-19T15:56:52;9.80;99.90
18083;DHT22;9168;51.194;6.840;2023-02-19T15:59:23;9.80;99.90
18083;DHT22;9168;51.194;6.840;2023-02-19T16:01:54;9.80;99.90
18083;DHT22;9168;51.194;6.840;2023-02-19T16:04:21;9.70;99.90
18083;DHT22;9168;51.194;6.840;2023-02-19T16:06:54;9.70;99.90
18083;DHT22;9168;51.194;6.840;2023-02-19T16:09:28;9.70;99.90
18083;DHT22;9168;51.194;6.840;2023-02-19T16:11:57;9.70;99.90
18083;DHT22;9168;51.194;6.840;2023-02-19T16:14:29;9.70;99.90
18083;DHT22;9168;51.194;6.840;2023-02-19T16:16:59;9.70;99.90
18083;DHT22;9168;51.194;6.840;2023-02-19T16:19:33;9.70;99.90
18083;DHT22;9168;51.194;6.840;2023-02-19T16:22:01;9.70;99.90
18083;DHT22;9168;51.194;6.840;2023-02-19T16:24:31;9.70;99.90
18083;DHT22;9168;51.194;6.840;2023-02-19T16:27:01;9.70;99.90
18083;DHT22;9168;51.194;6.840;2023-02-19T16:29:30;9.70;99.90
18083;DHT22;9168;51.194;6.840;2023-02-19T16:31:59;9.70;99.90
18083;DHT22;9168;51.194;6.840;2023-02-19T16:34:32;9.70;99.90
18083;DHT22;9168;51.194;6.840;2023-02-19T16:37:01;9.70;99.90
18083;DHT22;9168;51.194;6.840;2023-02-19T16:39:30;9.70;99.90
18083;DHT22;9168;51.194;6.840;2023-02-19T16:42:15;9.60;99.90
18083;DHT22;9168;51.194;6.840;2023-02-19T16:44:43;9.60;99.90
18083;DHT22;9168;51.194;6.840;2023-02-19T16:47:24;9.60;99.90
18083;DHT22;9168;51.194;6.840;2023-02-19T16:49:51;9.60;99.90